sensor_id;sensor_type;location;lat;lon;timestamp;pressure;altitude;pressure_sealevel;temperature;humidity
75424;BME280;64005;55.160;36.002;2023-04-26T00:01:01;97830.09;;;10.59;64.29
75424;BME280;64005;55.160;36.002;2023-04-26T00:03:30;97837.63;;;10.59;64.49
75424;BME280;64005;55.160;36.002;2023-04-26T00:06:00;97834.44;;;10.57;64.11
75424;BME280;64005;55.160;36.002;2023-04-26T00:08:30;97833.63;;;10.56;64.06
75424;BME280;64005;55.160;36.002;2023-04-26T00:10:58;97831.13;;;10.51;64.07
75424;BME280;64005;55.160;36.002;2023-04-26T00:13:25;97827.69;;;10.58;64.28
75424;BME280;64005;55.160;36.002;2023-04-26T00:15:53;97822.06;;;10.54;64.54
75424;BME280;64005;55.160;36.002;2023-04-26T00:18:21;97832.00;;;10.55;64.20
75424;BME280;64005;55.160;36.002;2023-04-26T00:20:48;97832.72;;;10.52;64.43
75424;BME280;64005;55.160;36.002;2023-04-26T00:23:17;97825.56;;;10.51;64.32
75424;BME280;64005;55.160;36.002;2023-04-26T00:25:45;97822.34;;;10.49;64.62
75424;BME280;64005;55.160;36.002;2023-04-26T00:28:12;97836.25;;;10.49;64.92
75424;BME280;64005;55.160;36.002;2023-04-26T00:30:40;97839.94;;;10.38;65.43
75424;BME280;64005;55.160;36.002;2023-04-26T00:33:13;97833.22;;;10.39;65.42
75424;BME280;64005;55.160;36.002;2023-04-26T00:35:41;97823.00;;;10.43;65.13
75424;BME280;64005;55.160;36.002;2023-04-26T00:38:08;97816.63;;;10.42;64.97
75424;BME280;64005;55.160;36.002;2023-04-26T00:40:37;97818.81;;;10.33;65.61
75424;BME280;64005;55.160;36.002;2023-04-26T00:43:05;97817.13;;;10.28;65.35
75424;BME280;64005;55.160;36.002;2023-04-26T00:45:33;97815.16;;;10.29;65.39
75424;BME280;64005;55.160;36.002;2023-04-26T00:48:01;97814.00;;;10.30;65.42
75424;BME280;64005;55.160;36.002;2023-04-26T00:50:30;97810.81;;;10.31;65.59
75424;BME280;64005;55.160;36.002;2023-04-26T00:52:58;97803.81;;;10.38;65.50
75424;BME280;64005;55.160;36.002;2023-04-26T00:55:26;97805.06;;;10.40;65.55
75424;BME280;64005;55.160;36.002;2023-04-26T00:57:55;97681.13;;;9.66;65.20
75424;BME280;64005;55.160;36.002;2023-04-26T01:00:22;97800.66;;;10.39;65.41
75424;BME280;64005;55.160;36.002;2023-04-26T01:02:50;97791.16;;;10.40;65.67
75424;BME280;64005;55.160;36.002;2023-04-26T01:05:18;97790.00;;;10.41;65.31
75424;BME280;64005;55.160;36.002;2023-04-26T01:07:46;97784.19;;;10.30;65.36
75424;BME280;64005;55.160;36.002;2023-04-26T01:10:13;97796.38;;;10.42;65.58
75424;BME280;64005;55.160;36.002;2023-04-26T01:12:41;97785.59;;;10.40;65.94
75424;BME280;64005;55.160;36.002;2023-04-26T01:15:10;97784.44;;;10.41;65.74
75424;BME280;64005;55.160;36.002;2023-04-26T01:17:38;97786.41;;;10.41;65.85
75424;BME280;64005;55.160;36.002;2023-04-26T01:20:07;97783.28;;;10.42;65.89
75424;BME280;64005;55.160;36.002;2023-04-26T01:22:38;97785.69;;;10.44;65.71
75424;BME280;64005;55.160;36.002;2023-04-26T01:25:07;97778.59;;;10.46;65.75
75424;BME280;64005;55.160;36.002;2023-04-26T01:27:37;97786.56;;;10.48;65.83
75424;BME280;64005;55.160;36.002;2023-04-26T01:30:06;97785.41;;;10.49;65.60
75424;BME280;64005;55.160;36.002;2023-04-26T01:32:34;97781.81;;;10.48;65.52
75424;BME280;64005;55.160;36.002;2023-04-26T01:35:02;97785.75;;;10.47;65.63
75424;BME280;64005;55.160;36.002;2023-04-26T01:37:31;97776.81;;;10.38;66.21
75424;BME280;64005;55.160;36.002;2023-04-26T01:40:01;97783.19;;;10.39;65.90
75424;BME280;64005;55.160;36.002;2023-04-26T01:42:30;97784.63;;;10.32;66.18
75424;BME280;64005;55.160;36.002;2023-04-26T01:44:58;97787.78;;;10.31;66.46
75424;BME280;64005;55.160;36.002;2023-04-26T01:47:26;97786.09;;;10.26;66.36
75424;BME280;64005;55.160;36.002;2023-04-26T01:49:53;97780.47;;;10.23;66.74
75424;BME280;64005;55.160;36.002;2023-04-26T01:52:22;97771.34;;;10.22;66.50
75424;BME280;64005;55.160;36.002;2023-04-26T01:54:49;97776.50;;;10.24;66.35
75424;BME280;64005;55.160;36.002;2023-04-26T01:57:18;97778.50;;;10.23;66.44
75424;BME280;64005;55.160;36.002;2023-04-26T01:59:46;97777.25;;;10.21;66.37
75424;BME280;64005;55.160;36.002;2023-04-26T02:02:16;97779.22;;;10.20;66.47
75424;BME280;64005;55.160;36.002;2023-04-26T02:04:43;97775.28;;;10.21;66.32
75424;BME280;64005;55.160;36.002;2023-04-26T02:07:11;97770.88;;;10.20;66.45
75424;BME280;64005;55.160;36.002;2023-04-26T02:09:38;97765.25;;;10.17;66.35
75424;BME280;64005;55.160;36.002;2023-04-26T02:12:06;97777.06;;;10.14;66.70
75424;BME280;64005;55.160;36.002;2023-04-26T02:14:35;97773.03;;;10.11;66.68
75424;BME280;64005;55.160;36.002;2023-04-26T02:17:02;97763.53;;;10.12;66.72
75424;BME280;64005;55.160;36.002;2023-04-26T02:19:31;97767.84;;;10.10;66.59
75424;BME280;64005;55.160;36.002;2023-04-26T02:21:58;97769.44;;;10.11;66.70
75424;BME280;64005;55.160;36.002;2023-04-26T02:24:26;97765.06;;;10.10;66.67
75424;BME280;64005;55.160;36.002;2023-04-26T02:26:54;97755.47;;;10.07;66.76
75424;BME280;64005;55.160;36.002;2023-04-26T02:29:28;97774.63;;;10.12;67.07
75424;BME280;64005;55.160;36.002;2023-04-26T02:31:58;97771.06;;;10.12;67.13
75424;BME280;64005;55.160;36.002;2023-04-26T02:34:25;97765.13;;;10.13;66.98
75424;BME280;64005;55.160;36.002;2023-04-26T02:36:53;97768.03;;;10.17;66.88
75424;BME280;64005;55.160;36.002;2023-04-26T02:39:20;97750.72;;;10.08;67.14
75424;BME280;64005;55.160;36.002;2023-04-26T02:41:48;97760.47;;;10.17;66.86
75424;BME280;64005;55.160;36.002;2023-04-26T02:44:16;97759.75;;;10.20;67.14
75424;BME280;64005;55.160;36.002;2023-04-26T02:46:43;97754.66;;;10.22;67.16
75424;BME280;64005;55.160;36.002;2023-04-26T02:49:12;97766.75;;;10.30;66.78
75424;BME280;64005;55.160;36.002;2023-04-26T02:51:40;97769.94;;;10.32;67.19
75424;BME280;64005;55.160;36.002;2023-04-26T02:54:07;97765.63;;;10.34;67.03
75424;BME280;64005;55.160;36.002;2023-04-26T02:56:35;97762.56;;;10.40;66.51
75424;BME280;64005;55.160;36.002;2023-04-26T02:59:02;97755.97;;;10.48;66.73
75424;BME280;64005;55.160;36.002;2023-04-26T03:01:30;97756.13;;;10.55;66.96
75424;BME280;64005;55.160;36.002;2023-04-26T03:03:57;97757.09;;;10.62;66.88
75424;BME280;64005;55.160;36.002;2023-04-26T03:06:26;97748.06;;;10.69;67.02
75424;BME280;64005;55.160;36.002;2023-04-26T03:08:54;97749.81;;;10.77;66.49
75424;BME280;64005;55.160;36.002;2023-04-26T03:11:22;97745.19;;;10.85;66.67
75424;BME280;64005;55.160;36.002;2023-04-26T03:13:49;97745.72;;;10.90;66.33
75424;BME280;64005;55.160;36.002;2023-04-26T03:16:18;97747.00;;;10.96;66.61
75424;BME280;64005;55.160;36.002;2023-04-26T03:18:46;97743.56;;;11.03;66.32
75424;BME280;64005;55.160;36.002;2023-04-26T03:21:14;97744.06;;;11.08;66.29
75424;BME280;64005;55.160;36.002;2023-04-26T03:23:43;97743.00;;;11.17;66.60
75424;BME280;64005;55.160;36.002;2023-04-26T03:26:10;97747.09;;;11.23;66.35
75424;BME280;64005;55.160;36.002;2023-04-26T03:28:40;97733.66;;;11.28;66.39
75424;BME280;64005;55.160;36.002;2023-04-26T03:31:07;97733.72;;;11.32;66.64
75424;BME280;64005;55.160;36.002;2023-04-26T03:33:35;97739.03;;;11.40;66.26
75424;BME280;64005;55.160;36.002;2023-04-26T03:36:03;97741.09;;;11.43;66.25
75424;BME280;64005;55.160;36.002;2023-04-26T03:38:31;97735.94;;;11.45;66.98
75424;BME280;64005;55.160;36.002;2023-04-26T03:41:00;97744.38;;;11.49;66.59
75424;BME280;64005;55.160;36.002;2023-04-26T03:43:28;97739.63;;;11.53;66.37
75424;BME280;64005;55.160;36.002;2023-04-26T03:45:55;97735.34;;;11.59;66.20
75424;BME280;64005;55.160;36.002;2023-04-26T03:48:23;97729.47;;;11.64;66.44
75424;BME280;64005;55.160;36.002;2023-04-26T03:50:50;97741.13;;;11.70;66.51
75424;BME280;64005;55.160;36.002;2023-04-26T03:53:18;97733.28;;;11.75;65.68
75424;BME280;64005;55.160;36.002;2023-04-26T03:55:45;97738.50;;;11.80;65.94
75424;BME280;64005;55.160;36.002;2023-04-26T03:58:14;97737.38;;;11.85;65.95
75424;BME280;64005;55.160;36.002;2023-04-26T04:00:42;97735.84;;;11.87;65.87
75424;BME280;64005;55.160;36.002;2023-04-26T04:03:09;97730.69;;;11.89;65.92
75424;BME280;64005;55.160;36.002;2023-04-26T04:05:37;97736.75;;;11.95;66.04
75424;BME280;64005;55.160;36.002;2023-04-26T04:08:04;97732.03;;;11.99;65.30
75424;BME280;64005;55.160;36.002;2023-04-26T04:10:32;97729.66;;;12.01;65.88
75424;BME280;64005;55.160;36.002;2023-04-26T04:12:59;97732.81;;;12.00;65.86
75424;BME280;64005;55.160;36.002;2023-04-26T04:15:28;97739.69;;;12.06;65.89
75424;BME280;64005;55.160;36.002;2023-04-26T04:17:56;97740.97;;;12.12;65.44
75424;BME280;64005;55.160;36.002;2023-04-26T04:20:23;97742.19;;;12.14;65.44
75424;BME280;64005;55.160;36.002;2023-04-26T04:22:52;97737.44;;;12.15;65.22
75424;BME280;64005;55.160;36.002;2023-04-26T04:25:20;97733.88;;;12.18;65.54
75424;BME280;64005;55.160;36.002;2023-04-26T04:27:47;97741.94;;;12.23;65.16
75424;BME280;64005;55.160;36.002;2023-04-26T04:30:15;97722.78;;;12.21;65.26
75424;BME280;64005;55.160;36.002;2023-04-26T04:32:44;97738.09;;;12.34;64.92
75424;BME280;64005;55.160;36.002;2023-04-26T04:35:12;97749.34;;;12.42;64.92
75424;BME280;64005;55.160;36.002;2023-04-26T04:37:39;97739.88;;;12.50;65.12
75424;BME280;64005;55.160;36.002;2023-04-26T04:40:09;97745.53;;;12.57;64.63
75424;BME280;64005;55.160;36.002;2023-04-26T04:42:38;97753.59;;;12.62;64.66
75424;BME280;64005;55.160;36.002;2023-04-26T04:45:07;97678.53;;;12.20;64.81
75424;BME280;64005;55.160;36.002;2023-04-26T04:47:34;97749.34;;;12.75;64.46
75424;BME280;64005;55.160;36.002;2023-04-26T04:50:07;97744.22;;;12.81;64.28
75424;BME280;64005;55.160;36.002;2023-04-26T04:52:34;97749.63;;;13.00;64.63
75424;BME280;64005;55.160;36.002;2023-04-26T04:55:02;97761.31;;;13.09;63.94
75424;BME280;64005;55.160;36.002;2023-04-26T04:57:30;97755.50;;;13.25;63.84
75424;BME280;64005;55.160;36.002;2023-04-26T04:59:58;97747.56;;;13.30;63.29
75424;BME280;64005;55.160;36.002;2023-04-26T05:02:35;97636.78;;;12.60;63.42
75424;BME280;64005;55.160;36.002;2023-04-26T05:05:03;97751.66;;;13.43;63.12
75424;BME280;64005;55.160;36.002;2023-04-26T05:07:33;97751.41;;;13.56;62.87
75424;BME280;64005;55.160;36.002;2023-04-26T05:10:02;97747.00;;;13.58;62.67
75424;BME280;64005;55.160;36.002;2023-04-26T05:12:31;97739.75;;;13.46;62.82
75424;BME280;64005;55.160;36.002;2023-04-26T05:15:00;97747.41;;;13.57;62.95
75424;BME280;64005;55.160;36.002;2023-04-26T05:17:33;97750.25;;;13.64;62.46
75424;BME280;64005;55.160;36.002;2023-04-26T05:20:00;97744.34;;;13.72;62.19
75424;BME280;64005;55.160;36.002;2023-04-26T05:22:32;97748.41;;;13.82;61.86
75424;BME280;64005;55.160;36.002;2023-04-26T05:25:01;97742.84;;;13.85;61.54
75424;BME280;64005;55.160;36.002;2023-04-26T05:27:29;97746.16;;;14.02;61.22
75424;BME280;64005;55.160;36.002;2023-04-26T05:29:59;97754.56;;;14.05;61.16
75424;BME280;64005;55.160;36.002;2023-04-26T05:32:26;97753.47;;;14.20;60.54
75424;BME280;64005;55.160;36.002;2023-04-26T05:34:54;97758.38;;;14.38;60.15
75424;BME280;64005;55.160;36.002;2023-04-26T05:37:21;97751.63;;;14.46;59.86
75424;BME280;64005;55.160;36.002;2023-04-26T05:39:51;97762.06;;;14.52;59.33
75424;BME280;64005;55.160;36.002;2023-04-26T05:42:18;97761.72;;;14.64;59.10
75424;BME280;64005;55.160;36.002;2023-04-26T05:44:46;97760.56;;;14.76;58.92
75424;BME280;64005;55.160;36.002;2023-04-26T05:47:13;97756.63;;;14.88;58.69
75424;BME280;64005;55.160;36.002;2023-04-26T05:49:41;97765.06;;;15.05;58.58
75424;BME280;64005;55.160;36.002;2023-04-26T05:52:08;97763.03;;;14.99;58.12
75424;BME280;64005;55.160;36.002;2023-04-26T05:54:36;97761.06;;;15.06;58.02
75424;BME280;64005;55.160;36.002;2023-04-26T05:57:05;97746.69;;;15.15;57.72
75424;BME280;64005;55.160;36.002;2023-04-26T05:59:35;97761.13;;;15.38;57.21
75424;BME280;64005;55.160;36.002;2023-04-26T06:02:02;97762.00;;;15.60;56.83
75424;BME280;64005;55.160;36.002;2023-04-26T06:04:30;97768.41;;;15.68;56.08
75424;BME280;64005;55.160;36.002;2023-04-26T06:06:58;97762.00;;;15.71;55.77
75424;BME280;64005;55.160;36.002;2023-04-26T06:09:25;97766.41;;;15.86;55.70
75424;BME280;64005;55.160;36.002;2023-04-26T06:11:53;97770.38;;;15.96;54.62
75424;BME280;64005;55.160;36.002;2023-04-26T06:14:22;97762.78;;;16.03;53.93
75424;BME280;64005;55.160;36.002;2023-04-26T06:16:50;97759.56;;;16.12;53.72
75424;BME280;64005;55.160;36.002;2023-04-26T06:19:18;97760.31;;;16.30;53.10
75424;BME280;64005;55.160;36.002;2023-04-26T06:21:45;97761.88;;;16.52;52.49
75424;BME280;64005;55.160;36.002;2023-04-26T06:24:13;97772.28;;;16.73;51.68
75424;BME280;64005;55.160;36.002;2023-04-26T06:26:41;97769.38;;;16.91;51.22
75424;BME280;64005;55.160;36.002;2023-04-26T06:29:08;97762.09;;;17.07;50.59
75424;BME280;64005;55.160;36.002;2023-04-26T06:31:37;97756.41;;;17.22;50.27
75424;BME280;64005;55.160;36.002;2023-04-26T06:34:05;97765.75;;;17.01;49.79
75424;BME280;64005;55.160;36.002;2023-04-26T06:36:32;97772.53;;;17.07;49.63
75424;BME280;64005;55.160;36.002;2023-04-26T06:39:00;97768.88;;;17.14;49.31
75424;BME280;64005;55.160;36.002;2023-04-26T06:41:28;97774.44;;;17.24;48.90
75424;BME280;64005;55.160;36.002;2023-04-26T06:43:56;97777.28;;;17.21;48.56
75424;BME280;64005;55.160;36.002;2023-04-26T06:46:23;97772.94;;;17.05;48.63
75424;BME280;64005;55.160;36.002;2023-04-26T06:48:53;97780.19;;;16.99;48.88
75424;BME280;64005;55.160;36.002;2023-04-26T06:51:21;97756.91;;;16.95;48.43
75424;BME280;64005;55.160;36.002;2023-04-26T06:53:48;97779.34;;;17.06;48.52
75424;BME280;64005;55.160;36.002;2023-04-26T06:56:17;97782.94;;;17.14;48.29
75424;BME280;64005;55.160;36.002;2023-04-26T06:58:58;97785.81;;;16.96;48.45
75424;BME280;64005;55.160;36.002;2023-04-26T07:01:26;97789.03;;;16.91;48.38
75424;BME280;64005;55.160;36.002;2023-04-26T07:03:56;97786.63;;;16.93;48.33
75424;BME280;64005;55.160;36.002;2023-04-26T07:06:24;97791.00;;;17.04;48.78
75424;BME280;64005;55.160;36.002;2023-04-26T07:08:52;97797.03;;;16.96;48.29
75424;BME280;64005;55.160;36.002;2023-04-26T07:11:19;97795.09;;;16.82;48.34
75424;BME280;64005;55.160;36.002;2023-04-26T07:13:47;97789.03;;;16.98;48.29
75424;BME280;64005;55.160;36.002;2023-04-26T07:16:15;97803.00;;;17.08;48.31
75424;BME280;64005;55.160;36.002;2023-04-26T07:18:42;97802.22;;;17.08;47.79
75424;BME280;64005;55.160;36.002;2023-04-26T07:21:11;97797.88;;;16.93;47.92
75424;BME280;64005;55.160;36.002;2023-04-26T07:23:39;97804.66;;;16.99;47.48
75424;BME280;64005;55.160;36.002;2023-04-26T07:26:09;97818.28;;;17.07;47.42
75424;BME280;64005;55.160;36.002;2023-04-26T07:28:36;97804.25;;;17.07;47.49
75424;BME280;64005;55.160;36.002;2023-04-26T07:31:04;97808.59;;;17.16;47.69
75424;BME280;64005;55.160;36.002;2023-04-26T07:33:31;97817.41;;;17.25;47.50
75424;BME280;64005;55.160;36.002;2023-04-26T07:36:00;97814.19;;;17.26;47.38
75424;BME280;64005;55.160;36.002;2023-04-26T07:38:29;97821.75;;;17.40;47.23
75424;BME280;64005;55.160;36.002;2023-04-26T07:40:57;97822.50;;;17.47;47.08
75424;BME280;64005;55.160;36.002;2023-04-26T07:43:26;97823.22;;;17.59;46.81
75424;BME280;64005;55.160;36.002;2023-04-26T07:45:54;97823.19;;;17.69;46.70
75424;BME280;64005;55.160;36.002;2023-04-26T07:48:21;97818.31;;;17.77;46.67
75424;BME280;64005;55.160;36.002;2023-04-26T07:50:48;97829.19;;;17.75;46.48
75424;BME280;64005;55.160;36.002;2023-04-26T07:53:16;97831.63;;;17.69;46.14
75424;BME280;64005;55.160;36.002;2023-04-26T07:55:45;97831.63;;;17.73;46.00
75424;BME280;64005;55.160;36.002;2023-04-26T07:58:13;97825.16;;;17.76;46.04
75424;BME280;64005;55.160;36.002;2023-04-26T08:00:40;97829.88;;;17.90;45.97
75424;BME280;64005;55.160;36.002;2023-04-26T08:03:08;97833.38;;;18.04;45.75
75424;BME280;64005;55.160;36.002;2023-04-26T08:05:37;97829.69;;;18.14;45.45
75424;BME280;64005;55.160;36.002;2023-04-26T08:08:04;97822.06;;;18.15;45.15
75424;BME280;64005;55.160;36.002;2023-04-26T08:10:32;97838.84;;;18.22;45.00
75424;BME280;64005;55.160;36.002;2023-04-26T08:13:00;97827.47;;;18.40;44.75
75424;BME280;64005;55.160;36.002;2023-04-26T08:15:29;97842.69;;;18.42;44.54
75424;BME280;64005;55.160;36.002;2023-04-26T08:17:57;97834.19;;;18.49;44.35
75424;BME280;64005;55.160;36.002;2023-04-26T08:20:24;97843.38;;;18.60;44.07
75424;BME280;64005;55.160;36.002;2023-04-26T08:22:54;97834.47;;;18.65;43.86
75424;BME280;64005;55.160;36.002;2023-04-26T08:25:22;97846.81;;;18.79;44.02
75424;BME280;64005;55.160;36.002;2023-04-26T08:27:50;97838.75;;;18.81;43.20
75424;BME280;64005;55.160;36.002;2023-04-26T08:30:19;97837.41;;;18.92;43.29
75424;BME280;64005;55.160;36.002;2023-04-26T08:32:47;97842.34;;;19.15;43.02
75424;BME280;64005;55.160;36.002;2023-04-26T08:35:14;97839.66;;;19.04;42.53
75424;BME280;64005;55.160;36.002;2023-04-26T08:37:42;97836.94;;;18.97;42.57
75424;BME280;64005;55.160;36.002;2023-04-26T08:40:10;97842.88;;;19.07;42.81
75424;BME280;64005;55.160;36.002;2023-04-26T08:42:40;97811.00;;;19.10;42.08
75424;BME280;64005;55.160;36.002;2023-04-26T08:45:09;97841.44;;;19.25;41.95
75424;BME280;64005;55.160;36.002;2023-04-26T08:47:42;97838.31;;;19.16;41.77
75424;BME280;64005;55.160;36.002;2023-04-26T08:50:12;97834.50;;;19.30;41.86
75424;BME280;64005;55.160;36.002;2023-04-26T08:52:42;97818.00;;;18.98;41.53
75424;BME280;64005;55.160;36.002;2023-04-26T08:55:11;97831.44;;;18.87;41.74
75424;BME280;64005;55.160;36.002;2023-04-26T08:57:39;97832.81;;;19.05;41.91
75424;BME280;64005;55.160;36.002;2023-04-26T09:00:08;97838.38;;;19.43;41.33
75424;BME280;64005;55.160;36.002;2023-04-26T09:02:42;97830.91;;;19.29;41.26
75424;BME280;64005;55.160;36.002;2023-04-26T09:05:12;97846.13;;;19.35;41.19
75424;BME280;64005;55.160;36.002;2023-04-26T09:07:41;97840.38;;;19.46;40.90
75424;BME280;64005;55.160;36.002;2023-04-26T09:10:10;97840.72;;;19.52;41.22
75424;BME280;64005;55.160;36.002;2023-04-26T09:12:39;97831.47;;;19.78;40.88
75424;BME280;64005;55.160;36.002;2023-04-26T09:15:07;97830.13;;;20.13;40.25
75424;BME280;64005;55.160;36.002;2023-04-26T09:17:37;97834.38;;;20.48;39.48
75424;BME280;64005;55.160;36.002;2023-04-26T09:20:23;97833.31;;;20.85;39.31
75424;BME280;64005;55.160;36.002;2023-04-26T09:30:38;97836.06;;;21.08;38.43
75424;BME280;64005;55.160;36.002;2023-04-26T12:42:50;97877.03;;;18.26;39.00
75424;BME280;64005;55.160;36.002;2023-04-26T12:48:58;97875.28;;;19.25;38.06
75424;BME280;64005;55.160;36.002;2023-04-26T14:14:18;97912.53;;;20.58;33.54
75424;BME280;64005;55.160;36.002;2023-04-26T14:45:15;97821.13;;;19.07;36.71
75424;BME280;64005;55.160;36.002;2023-04-26T14:47:42;97934.28;;;19.77;37.27
75424;BME280;64005;55.160;36.002;2023-04-26T14:55:21;97949.78;;;19.24;39.13
75424;BME280;64005;55.160;36.002;2023-04-26T15:08:31;97948.88;;;18.97;39.30
75424;BME280;64005;55.160;36.002;2023-04-26T15:10:59;97956.84;;;19.05;39.32
75424;BME280;64005;55.160;36.002;2023-04-26T15:13:26;97959.59;;;19.13;39.21
75424;BME280;64005;55.160;36.002;2023-04-26T15:15:54;97964.31;;;19.23;39.45
75424;BME280;64005;55.160;36.002;2023-04-26T15:18:21;97966.22;;;19.33;39.47
75424;BME280;64005;55.160;36.002;2023-04-26T15:20:48;97980.59;;;19.42;39.54
75424;BME280;64005;55.160;36.002;2023-04-26T15:23:16;97973.41;;;19.41;39.55
75424;BME280;64005;55.160;36.002;2023-04-26T15:25:45;97972.19;;;19.38;39.59
75424;BME280;64005;55.160;36.002;2023-04-26T15:28:12;97973.03;;;19.35;40.07
75424;BME280;64005;55.160;36.002;2023-04-26T15:30:39;97974.69;;;19.33;40.37
75424;BME280;64005;55.160;36.002;2023-04-26T15:33:07;97983.16;;;19.33;40.12
75424;BME280;64005;55.160;36.002;2023-04-26T15:35:35;97984.97;;;19.88;38.65
75424;BME280;64005;55.160;36.002;2023-04-26T15:38:02;97978.47;;;21.21;36.20
75424;BME280;64005;55.160;36.002;2023-04-26T16:39:55;97920.63;;;17.21;43.15
75424;BME280;64005;55.160;36.002;2023-04-26T16:47:34;97928.69;;;16.16;45.94
75424;BME280;64005;55.160;36.002;2023-04-26T16:50:01;97939.06;;;15.90;46.53
75424;BME280;64005;55.160;36.002;2023-04-26T16:53:06;98046.59;;;16.37;46.58
75424;BME280;64005;55.160;36.002;2023-04-26T16:55:35;98048.13;;;16.06;47.71
75424;BME280;64005;55.160;36.002;2023-04-26T16:58:03;98052.06;;;15.87;48.18
75424;BME280;64005;55.160;36.002;2023-04-26T17:00:30;98041.50;;;15.60;48.53
75424;BME280;64005;55.160;36.002;2023-04-26T17:02:58;98058.22;;;15.49;49.14
75424;BME280;64005;55.160;36.002;2023-04-26T17:05:25;98049.63;;;15.14;49.56
75424;BME280;64005;55.160;36.002;2023-04-26T17:07:54;98062.31;;;15.00;50.20
75424;BME280;64005;55.160;36.002;2023-04-26T17:10:24;98062.97;;;14.83;50.20
75424;BME280;64005;55.160;36.002;2023-04-26T17:12:53;98072.44;;;14.68;50.81
75424;BME280;64005;55.160;36.002;2023-04-26T17:15:21;98073.84;;;14.48;50.92
75424;BME280;64005;55.160;36.002;2023-04-26T17:17:49;98070.81;;;14.30;51.79
75424;BME280;64005;55.160;36.002;2023-04-26T17:20:16;98071.06;;;14.14;52.13
75424;BME280;64005;55.160;36.002;2023-04-26T17:22:44;98074.44;;;13.97;52.12
75424;BME280;64005;55.160;36.002;2023-04-26T17:25:11;98078.63;;;13.80;52.99
75424;BME280;64005;55.160;36.002;2023-04-26T17:27:39;98080.06;;;13.67;53.44
75424;BME280;64005;55.160;36.002;2023-04-26T17:30:08;98092.22;;;13.52;53.74
75424;BME280;64005;55.160;36.002;2023-04-26T17:32:36;98086.31;;;13.31;54.03
75424;BME280;64005;55.160;36.002;2023-04-26T17:35:04;98093.69;;;13.16;54.23
75424;BME280;64005;55.160;36.002;2023-04-26T17:37:32;98091.88;;;13.04;54.26
75424;BME280;64005;55.160;36.002;2023-04-26T17:40:00;98096.84;;;12.92;54.25
75424;BME280;64005;55.160;36.002;2023-04-26T17:42:32;98094.81;;;12.66;54.69
75424;BME280;64005;55.160;36.002;2023-04-26T17:44:59;98111.28;;;12.52;55.41
75424;BME280;64005;55.160;36.002;2023-04-26T17:47:29;98011.56;;;11.61;55.29
75424;BME280;64005;55.160;36.002;2023-04-26T17:49:57;98110.38;;;12.25;55.72
75424;BME280;64005;55.160;36.002;2023-04-26T17:52:24;98117.09;;;12.20;55.57
75424;BME280;64005;55.160;36.002;2023-04-26T17:54:52;98114.50;;;12.12;55.70
75424;BME280;64005;55.160;36.002;2023-04-26T17:57:20;98118.25;;;12.00;56.15
75424;BME280;64005;55.160;36.002;2023-04-26T17:59:49;98120.44;;;11.91;56.24
75424;BME280;64005;55.160;36.002;2023-04-26T18:02:17;98123.03;;;11.80;56.71
75424;BME280;64005;55.160;36.002;2023-04-26T18:04:47;98127.97;;;11.71;56.79
75424;BME280;64005;55.160;36.002;2023-04-26T18:07:14;98121.41;;;11.64;56.69
75424;BME280;64005;55.160;36.002;2023-04-26T18:09:42;98126.47;;;11.58;56.84
75424;BME280;64005;55.160;36.002;2023-04-26T18:12:10;98134.88;;;11.42;57.24
75424;BME280;64005;55.160;36.002;2023-04-26T18:14:37;98130.69;;;11.33;57.20
75424;BME280;64005;55.160;36.002;2023-04-26T18:17:10;98141.66;;;11.26;57.47
75424;BME280;64005;55.160;36.002;2023-04-26T18:19:38;98136.19;;;11.13;57.81
75424;BME280;64005;55.160;36.002;2023-04-26T18:22:07;98128.19;;;11.12;58.05
75424;BME280;64005;55.160;36.002;2023-04-26T18:24:35;98128.94;;;11.09;58.07
75424;BME280;64005;55.160;36.002;2023-04-26T18:27:03;98129.63;;;11.06;58.00
75424;BME280;64005;55.160;36.002;2023-04-26T18:29:31;98137.47;;;11.00;58.35
75424;BME280;64005;55.160;36.002;2023-04-26T18:31:58;98140.53;;;10.95;58.17
75424;BME280;64005;55.160;36.002;2023-04-26T18:34:26;98141.50;;;10.87;58.72
75424;BME280;64005;55.160;36.002;2023-04-26T18:36:53;98140.97;;;10.82;58.79
75424;BME280;64005;55.160;36.002;2023-04-26T18:39:22;98144.03;;;10.77;59.15
75424;BME280;64005;55.160;36.002;2023-04-26T18:41:50;98147.50;;;10.73;59.04
75424;BME280;64005;55.160;36.002;2023-04-26T18:44:18;98155.78;;;10.70;59.24
75424;BME280;64005;55.160;36.002;2023-04-26T18:46:46;98158.25;;;10.59;59.36
75424;BME280;64005;55.160;36.002;2023-04-26T18:49:13;98062.34;;;9.94;59.64
75424;BME280;64005;55.160;36.002;2023-04-26T18:51:41;98153.78;;;10.55;59.58
75424;BME280;64005;55.160;36.002;2023-04-26T18:54:09;98157.44;;;10.59;59.78
75424;BME280;64005;55.160;36.002;2023-04-26T18:56:38;98157.44;;;10.59;59.87
75424;BME280;64005;55.160;36.002;2023-04-26T18:59:06;98148.28;;;10.58;59.78
75424;BME280;64005;55.160;36.002;2023-04-26T19:01:34;98152.22;;;10.57;59.89
75424;BME280;64005;55.160;36.002;2023-04-26T19:04:02;98149.38;;;10.54;59.86
75424;BME280;64005;55.160;36.002;2023-04-26T19:06:29;98148.09;;;10.51;60.04
75424;BME280;64005;55.160;36.002;2023-04-26T19:08:58;98149.28;;;10.50;60.06
75424;BME280;64005;55.160;36.002;2023-04-26T19:11:26;98156.72;;;10.46;60.33
75424;BME280;64005;55.160;36.002;2023-04-26T19:13:55;98152.91;;;10.39;60.47
75424;BME280;64005;55.160;36.002;2023-04-26T19:16:22;98163.84;;;10.31;60.46
75424;BME280;64005;55.160;36.002;2023-04-26T19:18:50;98151.72;;;10.24;60.74
75424;BME280;64005;55.160;36.002;2023-04-26T19:21:18;98159.97;;;10.20;60.98
75424;BME280;64005;55.160;36.002;2023-04-26T19:23:45;98154.97;;;10.14;61.17
75424;BME280;64005;55.160;36.002;2023-04-26T19:26:13;98153.16;;;10.06;61.09
75424;BME280;64005;55.160;36.002;2023-04-26T19:28:41;98159.78;;;10.01;61.35